sensor_id;sensor_type;location;lat;lon;timestamp;pressure;altitude;pressure_sealevel;temperature;humidity
57885;BME280;43703;51.060;-0.086;2022-08-21T00:00:26;100282.46;;;14.98;63.43
57885;BME280;43703;51.060;-0.086;2022-08-21T00:02:53;100278.90;;;14.65;64.13
57885;BME280;43703;51.060;-0.086;2022-08-21T00:05:15;100275.87;;;14.46;65.57
57885;BME280;43703;51.060;-0.086;2022-08-21T00:07:40;100270.91;;;14.61;64.65
57885;BME280;43703;51.060;-0.086;2022-08-21T00:10:06;100269.73;;;14.75;64.85
57885;BME280;43703;51.060;-0.086;2022-08-21T00:12:29;100268.28;;;14.82;64.60
57885;BME280;43703;51.060;-0.086;2022-08-21T00:14:55;100264.51;;;14.87;64.28
57885;BME280;43703;51.060;-0.086;2022-08-21T00:17:21;100262.22;;;14.69;64.59
57885;BME280;43703;51.060;-0.086;2022-08-21T00:19:46;100257.52;;;14.68;64.21
57885;BME280;43703;51.060;-0.086;2022-08-21T00:22:12;100256.72;;;14.81;64.08
57885;BME280;43703;51.060;-0.086;2022-08-21T00:24:36;100261.22;;;14.96;64.20
57885;BME280;43703;51.060;-0.086;2022-08-21T00:27:02;100261.71;;;14.59;64.44
57885;BME280;43703;51.060;-0.086;2022-08-21T00:29:27;100261.94;;;14.49;64.59
57885;BME280;43703;51.060;-0.086;2022-08-21T00:31:52;100263.09;;;14.83;64.02
57885;BME280;43703;51.060;-0.086;2022-08-21T00:34:17;100264.37;;;14.91;63.95
57885;BME280;43703;51.060;-0.086;2022-08-21T00:36:42;100267.05;;;14.15;64.92
57885;BME280;43703;51.060;-0.086;2022-08-21T00:39:09;100267.77;;;14.67;64.69
57885;BME280;43703;51.060;-0.086;2022-08-21T00:41:35;100267.36;;;14.90;64.15
57885;BME280;43703;51.060;-0.086;2022-08-21T00:43:59;100268.91;;;14.77;63.90
57885;BME280;43703;51.060;-0.086;2022-08-21T00:46:24;100270.96;;;14.38;64.70
57885;BME280;43703;51.060;-0.086;2022-08-21T00:48:49;100273.56;;;14.20;65.31
57885;BME280;43703;51.060;-0.086;2022-08-21T00:51:20;100274.36;;;14.79;63.68
57885;BME280;43703;51.060;-0.086;2022-08-21T00:53:42;100269.19;;;15.37;63.36
57885;BME280;43703;51.060;-0.086;2022-08-21T00:56:05;100265.42;;;14.62;63.84
57885;BME280;43703;51.060;-0.086;2022-08-21T00:58:32;100261.38;;;14.48;64.80
57885;BME280;43703;51.060;-0.086;2022-08-21T01:00:55;100259.97;;;14.58;64.43
57885;BME280;43703;51.060;-0.086;2022-08-21T01:03:23;100264.04;;;14.76;65.05
57885;BME280;43703;51.060;-0.086;2022-08-21T01:05:46;100262.02;;;14.58;65.29
57885;BME280;43703;51.060;-0.086;2022-08-21T01:08:13;100256.67;;;14.64;65.00
57885;BME280;43703;51.060;-0.086;2022-08-21T01:10:37;100250.76;;;14.56;64.75
57885;BME280;43703;51.060;-0.086;2022-08-21T01:13:04;100249.88;;;15.07;64.07
57885;BME280;43703;51.060;-0.086;2022-08-21T01:15:32;100243.02;;;14.32;64.57
57885;BME280;43703;51.060;-0.086;2022-08-21T01:17:54;100239.33;;;15.01;64.05
57885;BME280;43703;51.060;-0.086;2022-08-21T01:20:19;100237.98;;;15.20;63.26
57885;BME280;43703;51.060;-0.086;2022-08-21T01:22:44;100233.90;;;14.75;63.42
57885;BME280;43703;51.060;-0.086;2022-08-21T01:25:13;100236.46;;;15.26;63.18
57885;BME280;43703;51.060;-0.086;2022-08-21T01:27:36;100241.38;;;15.55;62.58
57885;BME280;43703;51.060;-0.086;2022-08-21T01:30:07;100242.60;;;15.73;62.10
57885;BME280;43703;51.060;-0.086;2022-08-21T01:32:26;100247.44;;;15.44;61.78
57885;BME280;43703;51.060;-0.086;2022-08-21T01:34:52;100246.27;;;15.59;62.41
57885;BME280;43703;51.060;-0.086;2022-08-21T01:37:17;100247.53;;;15.43;62.02
57885;BME280;43703;51.060;-0.086;2022-08-21T01:39:43;100249.78;;;15.52;62.88
57885;BME280;43703;51.060;-0.086;2022-08-21T01:42:09;100249.27;;;15.55;62.19
57885;BME280;43703;51.060;-0.086;2022-08-21T01:44:33;100251.09;;;15.08;62.21
57885;BME280;43703;51.060;-0.086;2022-08-21T01:47:00;100253.48;;;14.91;63.04
57885;BME280;43703;51.060;-0.086;2022-08-21T01:49:24;100255.40;;;13.75;64.50
57885;BME280;43703;51.060;-0.086;2022-08-21T01:51:50;100257.11;;;14.81;63.83
57885;BME280;43703;51.060;-0.086;2022-08-21T01:54:16;100255.72;;;14.79;63.14
57885;BME280;43703;51.060;-0.086;2022-08-21T01:56:45;100252.44;;;14.56;63.47
57885;BME280;43703;51.060;-0.086;2022-08-21T01:59:07;100253.36;;;15.24;62.91
57885;BME280;43703;51.060;-0.086;2022-08-21T02:01:33;100252.05;;;15.31;62.29
57885;BME280;43703;51.060;-0.086;2022-08-21T02:03:58;100251.96;;;15.34;62.38
57885;BME280;43703;51.060;-0.086;2022-08-21T02:06:24;100254.92;;;15.64;62.37
57885;BME280;43703;51.060;-0.086;2022-08-21T02:08:50;100259.45;;;15.79;61.28
57885;BME280;43703;51.060;-0.086;2022-08-21T02:11:16;100255.90;;;15.89;61.58
57885;BME280;43703;51.060;-0.086;2022-08-21T02:13:41;100257.89;;;15.91;61.24
57885;BME280;43703;51.060;-0.086;2022-08-21T02:16:06;100253.43;;;15.79;61.47
57885;BME280;43703;51.060;-0.086;2022-08-21T02:18:31;100254.18;;;15.40;61.39
57885;BME280;43703;51.060;-0.086;2022-08-21T02:20:57;100252.29;;;15.79;61.54
57885;BME280;43703;51.060;-0.086;2022-08-21T02:23:23;100255.19;;;15.52;62.48
57885;BME280;43703;51.060;-0.086;2022-08-21T02:25:48;100252.94;;;15.45;60.95
57885;BME280;43703;51.060;-0.086;2022-08-21T02:28:15;100246.62;;;15.68;62.01
57885;BME280;43703;51.060;-0.086;2022-08-21T02:30:43;100247.47;;;15.47;61.21
57885;BME280;43703;51.060;-0.086;2022-08-21T02:33:07;100249.54;;;15.87;61.65
57885;BME280;43703;51.060;-0.086;2022-08-21T02:35:32;100251.55;;;15.84;61.31
57885;BME280;43703;51.060;-0.086;2022-08-21T02:37:59;100252.73;;;16.19;61.99
57885;BME280;43703;51.060;-0.086;2022-08-21T02:40:25;100249.75;;;15.64;60.35
57885;BME280;43703;51.060;-0.086;2022-08-21T02:42:49;100245.45;;;15.69;60.35
57885;BME280;43703;51.060;-0.086;2022-08-21T02:45:16;100240.87;;;15.44;60.58
57885;BME280;43703;51.060;-0.086;2022-08-21T02:47:42;100245.02;;;15.63;60.82
57885;BME280;43703;51.060;-0.086;2022-08-21T02:50:07;100243.53;;;15.73;61.17
57885;BME280;43703;51.060;-0.086;2022-08-21T02:52:31;100240.64;;;15.58;60.97
57885;BME280;43703;51.060;-0.086;2022-08-21T02:54:56;100241.50;;;15.59;60.63
57885;BME280;43703;51.060;-0.086;2022-08-21T02:57:21;100238.23;;;15.71;60.84
57885;BME280;43703;51.060;-0.086;2022-08-21T02:59:46;100236.96;;;15.70;60.48
57885;BME280;43703;51.060;-0.086;2022-08-21T03:02:12;100237.58;;;15.38;60.89
57885;BME280;43703;51.060;-0.086;2022-08-21T03:04:37;100231.99;;;15.44;61.50
57885;BME280;43703;51.060;-0.086;2022-08-21T03:07:02;100225.27;;;15.64;60.92
57885;BME280;43703;51.060;-0.086;2022-08-21T03:09:27;100227.75;;;14.98;61.44
57885;BME280;43703;51.060;-0.086;2022-08-21T03:11:52;100225.10;;;15.13;62.02
57885;BME280;43703;51.060;-0.086;2022-08-21T03:14:18;100224.48;;;15.36;62.04
57885;BME280;43703;51.060;-0.086;2022-08-21T03:16:42;100217.94;;;15.15;62.37
57885;BME280;43703;51.060;-0.086;2022-08-21T03:19:07;100214.13;;;15.18;61.65
57885;BME280;43703;51.060;-0.086;2022-08-21T03:21:32;100214.46;;;15.27;62.07
57885;BME280;43703;51.060;-0.086;2022-08-21T03:23:57;100214.49;;;14.79;62.48
57885;BME280;43703;51.060;-0.086;2022-08-21T03:26:22;100215.93;;;15.11;62.82
57885;BME280;43703;51.060;-0.086;2022-08-21T03:28:48;100214.76;;;15.33;62.29
57885;BME280;43703;51.060;-0.086;2022-08-21T03:31:13;100208.99;;;15.52;61.85
57885;BME280;43703;51.060;-0.086;2022-08-21T03:33:38;100209.46;;;15.25;61.66
57885;BME280;43703;51.060;-0.086;2022-08-21T03:36:06;100214.56;;;15.28;62.05
57885;BME280;43703;51.060;-0.086;2022-08-21T03:38:30;100216.38;;;15.16;61.29
57885;BME280;43703;51.060;-0.086;2022-08-21T03:40:55;100213.42;;;14.96;61.68
57885;BME280;43703;51.060;-0.086;2022-08-21T03:43:21;100215.10;;;15.03;62.30
57885;BME280;43703;51.060;-0.086;2022-08-21T03:45:46;100215.04;;;15.22;62.49
57885;BME280;43703;51.060;-0.086;2022-08-21T03:48:13;100213.50;;;14.80;61.88
57885;BME280;43703;51.060;-0.086;2022-08-21T03:50:40;100214.60;;;15.11;62.25
57885;BME280;43703;51.060;-0.086;2022-08-21T03:53:02;100218.09;;;15.43;62.73
57885;BME280;43703;51.060;-0.086;2022-08-21T03:55:28;100219.88;;;15.44;62.20
57885;BME280;43703;51.060;-0.086;2022-08-21T03:57:53;100219.82;;;15.10;62.68
57885;BME280;43703;51.060;-0.086;2022-08-21T04:00:19;100219.42;;;14.79;62.78
57885;BME280;43703;51.060;-0.086;2022-08-21T04:02:44;100222.27;;;14.68;63.71
57885;BME280;43703;51.060;-0.086;2022-08-21T04:05:10;100224.04;;;14.49;63.89
57885;BME280;43703;51.060;-0.086;2022-08-21T04:07:34;100228.19;;;14.51;63.42
57885;BME280;43703;51.060;-0.086;2022-08-21T04:09:58;100228.04;;;15.45;63.44
57885;BME280;43703;51.060;-0.086;2022-08-21T04:12:24;100229.50;;;15.41;62.98
57885;BME280;43703;51.060;-0.086;2022-08-21T04:14:49;100229.83;;;15.28;62.07
57885;BME280;43703;51.060;-0.086;2022-08-21T04:17:14;100225.93;;;15.42;62.16
57885;BME280;43703;51.060;-0.086;2022-08-21T04:19:40;100226.85;;;15.51;62.18
57885;BME280;43703;51.060;-0.086;2022-08-21T04:22:06;100227.25;;;15.44;62.02
57885;BME280;43703;51.060;-0.086;2022-08-21T04:24:31;100225.47;;;15.43;61.81
57885;BME280;43703;51.060;-0.086;2022-08-21T04:26:56;100225.27;;;15.31;61.59
57885;BME280;43703;51.060;-0.086;2022-08-21T04:29:22;100228.72;;;15.24;61.66
57885;BME280;43703;51.060;-0.086;2022-08-21T04:31:47;100231.97;;;15.34;62.20
57885;BME280;43703;51.060;-0.086;2022-08-21T04:34:13;100229.54;;;15.31;63.01
57885;BME280;43703;51.060;-0.086;2022-08-21T04:36:38;100229.55;;;15.32;62.57
57885;BME280;43703;51.060;-0.086;2022-08-21T04:39:04;100228.70;;;15.27;61.77
57885;BME280;43703;51.060;-0.086;2022-08-21T04:41:29;100225.42;;;15.61;61.68
57885;BME280;43703;51.060;-0.086;2022-08-21T04:43:54;100229.61;;;15.80;61.30
57885;BME280;43703;51.060;-0.086;2022-08-21T04:46:19;100234.23;;;15.09;60.46
57885;BME280;43703;51.060;-0.086;2022-08-21T04:48:45;100233.56;;;15.38;61.39
57885;BME280;43703;51.060;-0.086;2022-08-21T04:51:12;100236.28;;;15.41;61.63
57885;BME280;43703;51.060;-0.086;2022-08-21T04:53:38;100236.44;;;15.38;61.57
57885;BME280;43703;51.060;-0.086;2022-08-21T04:56:03;100241.16;;;15.13;60.61
57885;BME280;43703;51.060;-0.086;2022-08-21T04:58:26;100240.94;;;14.90;61.04
57885;BME280;43703;51.060;-0.086;2022-08-21T05:00:52;100243.85;;;15.24;61.87
57885;BME280;43703;51.060;-0.086;2022-08-21T05:03:16;100245.98;;;15.36;61.76
57885;BME280;43703;51.060;-0.086;2022-08-21T05:05:40;100246.63;;;15.27;61.57
57885;BME280;43703;51.060;-0.086;2022-08-21T05:08:07;100245.17;;;15.35;61.61
57885;BME280;43703;51.060;-0.086;2022-08-21T05:10:31;100245.48;;;15.01;61.40
57885;BME280;43703;51.060;-0.086;2022-08-21T05:12:55;100247.65;;;14.98;61.21
57885;BME280;43703;51.060;-0.086;2022-08-21T05:15:21;100242.42;;;15.12;61.93
57885;BME280;43703;51.060;-0.086;2022-08-21T05:17:45;100234.39;;;14.89;61.19
57885;BME280;43703;51.060;-0.086;2022-08-21T05:20:12;100235.07;;;15.28;61.53
57885;BME280;43703;51.060;-0.086;2022-08-21T05:22:36;100234.59;;;14.30;61.57
57885;BME280;43703;51.060;-0.086;2022-08-21T05:25:01;100242.46;;;15.02;63.29
57885;BME280;43703;51.060;-0.086;2022-08-21T05:27:26;100248.84;;;15.23;62.70
57885;BME280;43703;51.060;-0.086;2022-08-21T05:29:51;100258.06;;;15.18;61.72
57885;BME280;43703;51.060;-0.086;2022-08-21T05:32:16;100261.82;;;15.00;61.16
57885;BME280;43703;51.060;-0.086;2022-08-21T05:34:41;100262.10;;;15.05;61.32
57885;BME280;43703;51.060;-0.086;2022-08-21T05:37:06;100263.25;;;15.30;60.97
57885;BME280;43703;51.060;-0.086;2022-08-21T05:39:31;100260.07;;;15.37;61.67
57885;BME280;43703;51.060;-0.086;2022-08-21T05:41:56;100256.91;;;15.37;61.73
57885;BME280;43703;51.060;-0.086;2022-08-21T05:44:22;100258.22;;;15.37;61.75
57885;BME280;43703;51.060;-0.086;2022-08-21T05:46:47;100262.17;;;15.50;62.20
57885;BME280;43703;51.060;-0.086;2022-08-21T05:49:13;100265.59;;;15.54;62.28
57885;BME280;43703;51.060;-0.086;2022-08-21T05:51:40;100265.42;;;15.69;63.15
57885;BME280;43703;51.060;-0.086;2022-08-21T05:54:03;100269.42;;;15.78;62.18
57885;BME280;43703;51.060;-0.086;2022-08-21T05:56:29;100270.42;;;15.49;61.61
57885;BME280;43703;51.060;-0.086;2022-08-21T05:58:55;100269.05;;;15.68;61.22
57885;BME280;43703;51.060;-0.086;2022-08-21T06:01:21;100268.56;;;15.73;62.84
57885;BME280;43703;51.060;-0.086;2022-08-21T06:03:46;100270.80;;;16.09;62.22
57885;BME280;43703;51.060;-0.086;2022-08-21T06:06:12;100268.93;;;15.75;61.61
57885;BME280;43703;51.060;-0.086;2022-08-21T06:08:38;100276.97;;;16.00;63.16
57885;BME280;43703;51.060;-0.086;2022-08-21T06:11:05;100283.04;;;16.16;63.04
57885;BME280;43703;51.060;-0.086;2022-08-21T06:13:30;100283.60;;;15.94;62.15
57885;BME280;43703;51.060;-0.086;2022-08-21T06:16:03;100291.16;;;15.12;63.99
57885;BME280;43703;51.060;-0.086;2022-08-21T06:18:22;100290.69;;;15.50;63.82
57885;BME280;43703;51.060;-0.086;2022-08-21T06:20:48;100294.96;;;14.78;64.80
57885;BME280;43703;51.060;-0.086;2022-08-21T06:23:13;100297.66;;;14.91;65.32
57885;BME280;43703;51.060;-0.086;2022-08-21T06:25:39;100298.45;;;15.67;64.59
57885;BME280;43703;51.060;-0.086;2022-08-21T06:28:07;100304.00;;;15.42;64.08
57885;BME280;43703;51.060;-0.086;2022-08-21T06:30:30;100301.30;;;15.78;64.47
57885;BME280;43703;51.060;-0.086;2022-08-21T06:32:56;100299.07;;;15.60;62.51
57885;BME280;43703;51.060;-0.086;2022-08-21T06:35:22;100296.77;;;15.70;64.44
57885;BME280;43703;51.060;-0.086;2022-08-21T06:37:48;100293.52;;;15.71;64.08
57885;BME280;43703;51.060;-0.086;2022-08-21T06:40:14;100285.98;;;16.02;63.58
57885;BME280;43703;51.060;-0.086;2022-08-21T06:42:39;100278.11;;;16.04;61.97
57885;BME280;43703;51.060;-0.086;2022-08-21T06:45:06;100272.56;;;15.80;63.81
57885;BME280;43703;51.060;-0.086;2022-08-21T06:47:31;100268.64;;;16.24;64.45
57885;BME280;43703;51.060;-0.086;2022-08-21T06:49:57;100260.85;;;16.24;63.21
57885;BME280;43703;51.060;-0.086;2022-08-21T06:52:23;100259.78;;;16.98;64.28
57885;BME280;43703;51.060;-0.086;2022-08-21T06:54:48;100258.53;;;16.94;64.28
57885;BME280;43703;51.060;-0.086;2022-08-21T06:57:14;100258.36;;;16.79;64.06
57885;BME280;43703;51.060;-0.086;2022-08-21T06:59:39;100254.83;;;17.67;60.69
57885;BME280;43703;51.060;-0.086;2022-08-21T07:02:06;100250.04;;;17.45;61.77
57885;BME280;43703;51.060;-0.086;2022-08-21T07:04:31;100247.05;;;17.78;60.55
57885;BME280;43703;51.060;-0.086;2022-08-21T07:06:57;100248.06;;;16.73;59.90
57885;BME280;43703;51.060;-0.086;2022-08-21T07:09:24;100246.77;;;16.83;60.04
57885;BME280;43703;51.060;-0.086;2022-08-21T07:11:51;100247.36;;;17.76;61.25
57885;BME280;43703;51.060;-0.086;2022-08-21T07:14:14;100236.00;;;18.06;60.39
57885;BME280;43703;51.060;-0.086;2022-08-21T07:16:39;100224.98;;;18.47;57.21
57885;BME280;43703;51.060;-0.086;2022-08-21T07:19:04;100223.90;;;19.00;58.89
57885;BME280;43703;51.060;-0.086;2022-08-21T07:21:30;100221.06;;;19.67;57.85
57885;BME280;43703;51.060;-0.086;2022-08-21T07:23:55;100219.15;;;19.14;53.96
57885;BME280;43703;51.060;-0.086;2022-08-21T07:26:23;100218.52;;;19.03;53.58
57885;BME280;43703;51.060;-0.086;2022-08-21T07:28:48;100217.35;;;18.69;53.94
57885;BME280;43703;51.060;-0.086;2022-08-21T07:31:15;100221.42;;;19.11;54.63
57885;BME280;43703;51.060;-0.086;2022-08-21T07:33:39;100218.53;;;18.72;55.16
57885;BME280;43703;51.060;-0.086;2022-08-21T07:36:05;100219.47;;;18.75;54.49
57885;BME280;43703;51.060;-0.086;2022-08-21T07:38:31;100220.50;;;17.77;55.88
57885;BME280;43703;51.060;-0.086;2022-08-21T07:40:57;100217.76;;;17.80;57.48
57885;BME280;43703;51.060;-0.086;2022-08-21T07:43:22;100215.74;;;17.61;58.59
57885;BME280;43703;51.060;-0.086;2022-08-21T07:45:48;100217.59;;;18.07;56.80
57885;BME280;43703;51.060;-0.086;2022-08-21T07:48:13;100217.87;;;17.43;56.21
57885;BME280;43703;51.060;-0.086;2022-08-21T07:50:40;100218.31;;;17.30;58.96
57885;BME280;43703;51.060;-0.086;2022-08-21T07:53:05;100217.79;;;16.86;58.37
57885;BME280;43703;51.060;-0.086;2022-08-21T07:55:30;100215.52;;;16.76;59.39
57885;BME280;43703;51.060;-0.086;2022-08-21T07:57:58;100213.93;;;17.17;59.28
57885;BME280;43703;51.060;-0.086;2022-08-21T08:00:24;100214.73;;;17.98;58.03
57885;BME280;43703;51.060;-0.086;2022-08-21T08:02:50;100217.50;;;17.62;56.79
57885;BME280;43703;51.060;-0.086;2022-08-21T08:05:14;100218.25;;;17.76;58.49
57885;BME280;43703;51.060;-0.086;2022-08-21T08:07:40;100217.04;;;17.90;57.73
57885;BME280;43703;51.060;-0.086;2022-08-21T08:10:07;100214.92;;;18.11;58.28
57885;BME280;43703;51.060;-0.086;2022-08-21T08:12:31;100215.77;;;18.24;59.04
57885;BME280;43703;51.060;-0.086;2022-08-21T08:14:58;100217.51;;;18.43;58.61
57885;BME280;43703;51.060;-0.086;2022-08-21T08:17:23;100224.81;;;17.71;58.22
57885;BME280;43703;51.060;-0.086;2022-08-21T08:19:49;100224.72;;;17.55;58.69
57885;BME280;43703;51.060;-0.086;2022-08-21T08:22:14;100221.82;;;18.01;58.33
57885;BME280;43703;51.060;-0.086;2022-08-21T08:24:40;100218.66;;;18.28;58.36
57885;BME280;43703;51.060;-0.086;2022-08-21T08:27:06;100214.95;;;18.37;58.77
57885;BME280;43703;51.060;-0.086;2022-08-21T08:29:32;100211.26;;;18.33;56.94
57885;BME280;43703;51.060;-0.086;2022-08-21T08:31:57;100208.46;;;18.56;57.16
57885;BME280;43703;51.060;-0.086;2022-08-21T08:34:23;100210.59;;;19.00;56.38
57885;BME280;43703;51.060;-0.086;2022-08-21T08:36:49;100215.93;;;19.01;56.61
57885;BME280;43703;51.060;-0.086;2022-08-21T08:39:15;100220.14;;;18.54;55.24
57885;BME280;43703;51.060;-0.086;2022-08-21T08:41:41;100222.16;;;18.47;56.85
57885;BME280;43703;51.060;-0.086;2022-08-21T08:44:06;100220.10;;;18.96;55.74
57885;BME280;43703;51.060;-0.086;2022-08-21T08:46:38;100219.94;;;18.98;55.94
57885;BME280;43703;51.060;-0.086;2022-08-21T08:49:02;100218.95;;;19.44;53.65
57885;BME280;43703;51.060;-0.086;2022-08-21T08:51:27;100218.04;;;19.50;55.60
57885;BME280;43703;51.060;-0.086;2022-08-21T08:53:52;100225.74;;;20.02;54.17
57885;BME280;43703;51.060;-0.086;2022-08-21T08:56:17;100226.21;;;20.15;53.27
57885;BME280;43703;51.060;-0.086;2022-08-21T08:58:45;100230.48;;;20.42;51.57
57885;BME280;43703;51.060;-0.086;2022-08-21T09:01:12;100226.89;;;19.43;51.34
57885;BME280;43703;51.060;-0.086;2022-08-21T09:03:33;100226.75;;;20.16;53.38
57885;BME280;43703;51.060;-0.086;2022-08-21T09:06:02;100226.08;;;20.18;48.68
57885;BME280;43703;51.060;-0.086;2022-08-21T09:10:58;100228.51;;;19.77;50.13
57885;BME280;43703;51.060;-0.086;2022-08-21T09:13:21;100231.37;;;20.15;50.19
57885;BME280;43703;51.060;-0.086;2022-08-21T09:15:52;100232.37;;;20.35;47.58
57885;BME280;43703;51.060;-0.086;2022-08-21T09:18:20;100229.71;;;20.49;46.01
57885;BME280;43703;51.060;-0.086;2022-08-21T09:20:39;100227.73;;;21.37;47.90
57885;BME280;43703;51.060;-0.086;2022-08-21T09:23:11;100234.82;;;20.32;45.58
57885;BME280;43703;51.060;-0.086;2022-08-21T09:25:27;100242.21;;;20.57;45.81
57885;BME280;43703;51.060;-0.086;2022-08-21T09:27:51;100251.10;;;20.42;46.59
57885;BME280;43703;51.060;-0.086;2022-08-21T09:30:17;100252.20;;;19.65;44.70
57885;BME280;43703;51.060;-0.086;2022-08-21T09:32:43;100257.09;;;19.70;46.11
57885;BME280;43703;51.060;-0.086;2022-08-21T09:35:11;100263.87;;;19.15;48.29
57885;BME280;43703;51.060;-0.086;2022-08-21T09:40:02;100271.75;;;19.42;47.80
57885;BME280;43703;51.060;-0.086;2022-08-21T09:42:28;100275.96;;;19.40;47.41
57885;BME280;43703;51.060;-0.086;2022-08-21T09:47:19;100276.42;;;20.15;46.76
57885;BME280;43703;51.060;-0.086;2022-08-21T09:49:43;100277.96;;;20.44;44.31
57885;BME280;43703;51.060;-0.086;2022-08-21T09:52:16;100274.24;;;20.66;41.68
57885;BME280;43703;51.060;-0.086;2022-08-21T09:54:38;100273.53;;;21.45;43.47
57885;BME280;43703;51.060;-0.086;2022-08-21T09:57:12;100272.90;;;22.17;44.10
57885;BME280;43703;51.060;-0.086;2022-08-21T09:59:29;100266.33;;;23.79;42.56
57885;BME280;43703;51.060;-0.086;2022-08-21T10:01:53;100263.14;;;22.88;39.15
57885;BME280;43703;51.060;-0.086;2022-08-21T10:04:22;100262.26;;;21.95;39.35
57885;BME280;43703;51.060;-0.086;2022-08-21T10:06:44;100254.71;;;22.19;41.43
57885;BME280;43703;51.060;-0.086;2022-08-21T10:09:11;100260.35;;;23.37;40.95
57885;BME280;43703;51.060;-0.086;2022-08-21T10:11:36;100257.38;;;24.19;39.09
57885;BME280;43703;51.060;-0.086;2022-08-21T10:14:10;100255.76;;;24.63;40.70
57885;BME280;43703;51.060;-0.086;2022-08-21T10:16:38;100257.94;;;24.98;35.77
57885;BME280;43703;51.060;-0.086;2022-08-21T10:19:02;100255.05;;;23.99;39.69
57885;BME280;43703;51.060;-0.086;2022-08-21T10:21:23;100255.07;;;23.44;39.71
57885;BME280;43703;51.060;-0.086;2022-08-21T10:23:53;100249.74;;;23.35;37.14
57885;BME280;43703;51.060;-0.086;2022-08-21T10:26:20;100250.42;;;23.77;40.81
57885;BME280;43703;51.060;-0.086;2022-08-21T10:28:39;100244.71;;;23.93;36.27
57885;BME280;43703;51.060;-0.086;2022-08-21T10:31:08;100238.13;;;21.94;41.02
57885;BME280;43703;51.060;-0.086;2022-08-21T10:33:34;100232.85;;;22.42;40.32
57885;BME280;43703;51.060;-0.086;2022-08-21T10:36:02;100237.44;;;23.22;37.35
57885;BME280;43703;51.060;-0.086;2022-08-21T10:40:51;100241.87;;;22.34;42.37
57885;BME280;43703;51.060;-0.086;2022-08-21T10:43:18;100236.21;;;21.93;39.09
57885;BME280;43703;51.060;-0.086;2022-08-21T10:45:46;100240.15;;;21.83;39.42
57885;BME280;43703;51.060;-0.086;2022-08-21T10:48:05;100238.38;;;22.19;39.97
57885;BME280;43703;51.060;-0.086;2022-08-21T10:50:32;100233.03;;;22.80;38.34
57885;BME280;43703;51.060;-0.086;2022-08-21T10:53:06;100236.16;;;22.28;38.64
57885;BME280;43703;51.060;-0.086;2022-08-21T10:55:22;100232.06;;;22.07;42.02
57885;BME280;43703;51.060;-0.086;2022-08-21T10:57:49;100229.85;;;22.02;39.16
57885;BME280;43703;51.060;-0.086;2022-08-21T11:00:14;100228.40;;;21.76;38.61
57885;BME280;43703;51.060;-0.086;2022-08-21T11:02:42;100229.76;;;21.61;39.34
57885;BME280;43703;51.060;-0.086;2022-08-21T11:05:11;100227.24;;;21.39;43.11
57885;BME280;43703;51.060;-0.086;2022-08-21T11:07:32;100227.90;;;21.10;40.59
57885;BME280;43703;51.060;-0.086;2022-08-21T11:09:57;100225.66;;;21.77;42.25
57885;BME280;43703;51.060;-0.086;2022-08-21T11:12:25;100223.67;;;21.04;43.07
57885;BME280;43703;51.060;-0.086;2022-08-21T11:14:52;100224.61;;;21.08;40.61
57885;BME280;43703;51.060;-0.086;2022-08-21T11:17:13;100222.88;;;20.98;41.36
57885;BME280;43703;51.060;-0.086;2022-08-21T11:19:44;100222.81;;;20.62;41.14
57885;BME280;43703;51.060;-0.086;2022-08-21T11:22:09;100223.12;;;21.22;40.67
57885;BME280;43703;51.060;-0.086;2022-08-21T11:24:34;100218.95;;;21.41;41.24
57885;BME280;43703;51.060;-0.086;2022-08-21T11:27:01;100218.83;;;21.25;40.69
57885;BME280;43703;51.060;-0.086;2022-08-21T11:29:24;100221.09;;;21.33;39.96
57885;BME280;43703;51.060;-0.086;2022-08-21T11:31:56;100221.84;;;20.73;40.93
57885;BME280;43703;51.060;-0.086;2022-08-21T11:34:23;100217.15;;;21.24;41.53
57885;BME280;43703;51.060;-0.086;2022-08-21T11:36:43;100223.74;;;21.15;40.86
57885;BME280;43703;51.060;-0.086;2022-08-21T11:39:14;100220.98;;;20.84;43.49
57885;BME280;43703;51.060;-0.086;2022-08-21T11:41:35;100223.78;;;20.46;41.20
57885;BME280;43703;51.060;-0.086;2022-08-21T11:44:06;100228.86;;;20.25;42.83
57885;BME280;43703;51.060;-0.086;2022-08-21T11:46:29;100226.66;;;20.43;43.18
57885;BME280;43703;51.060;-0.086;2022-08-21T11:48:59;100225.55;;;19.92;42.05
57885;BME280;43703;51.060;-0.086;2022-08-21T11:51:19;100223.03;;;19.94;42.32
57885;BME280;43703;51.060;-0.086;2022-08-21T11:53:44;100222.79;;;20.00;43.77
57885;BME280;43703;51.060;-0.086;2022-08-21T11:56:08;100224.42;;;19.69;42.87
57885;BME280;43703;51.060;-0.086;2022-08-21T11:58:33;100232.07;;;19.48;44.11
57885;BME280;43703;51.060;-0.086;2022-08-21T12:00:59;100232.50;;;19.91;43.91
57885;BME280;43703;51.060;-0.086;2022-08-21T12:03:25;100235.60;;;19.83;43.18
57885;BME280;43703;51.060;-0.086;2022-08-21T12:05:54;100237.13;;;20.07;42.89
57885;BME280;43703;51.060;-0.086;2022-08-21T12:10:41;100237.86;;;20.16;43.44
57885;BME280;43703;51.060;-0.086;2022-08-21T12:13:09;100234.56;;;19.83;42.70
57885;BME280;43703;51.060;-0.086;2022-08-21T12:15:30;100235.97;;;19.70;43.52
57885;BME280;43703;51.060;-0.086;2022-08-21T12:18:00;100239.36;;;20.19;42.34
57885;BME280;43703;51.060;-0.086;2022-08-21T12:22:53;100238.79;;;20.04;42.66
57885;BME280;43703;51.060;-0.086;2022-08-21T12:25:18;100237.11;;;19.88;43.49
57885;BME280;43703;51.060;-0.086;2022-08-21T12:27:46;100232.49;;;20.05;43.11
57885;BME280;43703;51.060;-0.086;2022-08-21T12:35:05;100226.87;;;20.44;40.99
57885;BME280;43703;51.060;-0.086;2022-08-21T12:37:27;100226.39;;;19.99;44.36
57885;BME280;43703;51.060;-0.086;2022-08-21T12:39:51;100222.95;;;20.36;42.02
57885;BME280;43703;51.060;-0.086;2022-08-21T12:42:17;100225.19;;;20.78;43.29
57885;BME280;43703;51.060;-0.086;2022-08-21T12:44:45;100228.34;;;20.23;43.10
57885;BME280;43703;51.060;-0.086;2022-08-21T12:49:34;100220.49;;;20.90;44.48
57885;BME280;43703;51.060;-0.086;2022-08-21T12:52:03;100217.46;;;21.80;42.07